Thursday, March 23, 2017, 12:23 AM EDT

KSEG, Selinsgrove Penn Valley Airport

Location: Selinsgrove, PA, United States Lat: 40.817
Local Time: 12:23 AM EDT ( 4:23 GMT) Lon: -76.867
Time Zone: US/Eastern Elev: 449 ft

Show me the last for .
Show Decoded

2017-03-22 23:53 METAR KSEG 230353Z AUTO 11004KT 10SM CLR M06/M13 A3050 RMK AO2 SLP335 T10561128
                 =
2017-03-22 22:53 METAR KSEG 230253Z AUTO 36005KT 10SM CLR M04/M13 A3049 RMK AO2 SLP332 T10441128
                 51024 =
2017-03-22 21:53 METAR KSEG 230153Z AUTO 04005KT 10SM CLR M03/M15 A3047 RMK AO2 SLP325 T10281150
                 =
2017-03-22 20:53 METAR KSEG 230053Z AUTO 01008KT 10SM CLR M02/M14 A3044 RMK AO2 SLP314 T10221139
                 =
2017-03-22 19:53 METAR KSEG 222353Z AUTO 02008KT 10SM CLR M01/M14 A3042 RMK AO2 SLP306 T10111144
                 10033 21011 51029 =
2017-03-22 18:53 METAR KSEG 222253Z AUTO 02009KT 10SM CLR 01/M16 A3040 RMK AO2 SLP299 T00061156 =
2017-03-22 17:53 METAR KSEG 222153Z AUTO 34016G22KT 10SM CLR 02/M16 A3036 RMK AO2 SLP285
                 T00171156 =
2017-03-22 16:53 METAR KSEG 222053Z AUTO 35014G24KT 10SM CLR 02/M14 A3033 RMK AO2 SLP276
                 T00221139 53007 =
2017-03-22 15:53 METAR KSEG 221953Z AUTO 32017G27KT 10SM CLR 03/M15 A3032 RMK AO2 PK WND
                 33027/1944 SLP272 T00281150 =
2017-03-22 14:53 METAR KSEG 221853Z AUTO 31018G26KT 10SM CLR 03/M16 A3031 RMK AO2 PK WND
                 32026/1853 SLP267 T00281156 =
2017-03-22 13:53 METAR KSEG 221753Z AUTO 33016G25KT 10SM CLR 02/M14 A3031 RMK AO2 PK WND
                 30026/1656 SLP269 T00221139 10022 20000 50012 =
2017-03-22 12:53 METAR KSEG 221653Z AUTO 32012G23KT 10SM CLR 02/M13 A3032 RMK AO2 SLP270
                 T00171133 =
2017-03-22 11:53 METAR KSEG 221553Z AUTO 36010G24KT 10SM CLR 01/M13 A3030 RMK AO2 PK WND
                 32029/1454 SLP265 T00111128 =
2017-03-22 10:53 METAR KSEG 221453Z AUTO 33015G25KT 10SM CLR 01/M12 A3028 RMK AO2 PK WND
                 35028/1439 SLP257 T00061122 51034 =
2017-03-22 09:53 METAR KSEG 221353Z AUTO 34018G26KT 10SM CLR 01/M12 A3024 RMK AO2 PK WND
                 32028/1315 SLP243 T00061117 =
2017-03-22 08:53 METAR KSEG 221253Z AUTO 34019G25KT 10SM CLR 00/M11 A3022 RMK AO2 PK WND
                 33027/1228 SLP236 T00001111 =
2017-03-22 07:53 METAR KSEG 221153Z AUTO 32011G20KT 10SM BKN050 00/M09 A3018 RMK AO2 SLP222
                 T00001094 10061 20000 53044 =
2017-03-22 06:53 METAR KSEG 221053Z AUTO 33016G24KT 10SM SCT041 OVC055 01/M06 A3013 RMK AO2
                 SLP205 T00111056 =
2017-03-22 05:53 METAR KSEG 220953Z AUTO 32012G18KT 10SM OVC060 03/M07 A3008 RMK AO2 SLP187
                 T00281072 =
2017-03-22 04:53 METAR KSEG 220853Z AUTO 33006KT 10SM OVC050 03/M06 A3005 RMK AO2 SLP176
                 T00331056 51037 =
2017-03-22 03:53 METAR KSEG 220753Z AUTO 31009G18KT 10SM OVC055 04/M05 A3001 RMK AO2 SLP165
                 T00441050 =
2017-03-22 02:53 METAR KSEG 220653Z AUTO 31012KT 10SM SCT060 06/M03 A2998 RMK AO2 SLP154
                 T00561033 =
2017-03-22 01:53 METAR KSEG 220553Z AUTO 34007KT 10SM OVC085 01/M02 A2994 RMK AO2 SLP140
                 T00111022 10094 20006 53008 =
2017-03-22 00:53 METAR KSEG 220453Z AUTO 32003KT 10SM CLR 01/M03 A2992 RMK AO2 SLP134 T00111028
                 401500006 =

Support USWX by starting your Amazon purchase here.